Time;durP1;ratioP1;P1;durP2;ratioP2;P2;SDS_P1;SDS_P2;PMS_P1;PMS_P2;Temp;Humidity;BMP_temperature;BMP_pressure;BME280_temperature;BME280_humidity;BME280_pressure;Samples;Min_cycle;Max_cycle;Signal;HPM_P1;HPM_P2
2023/11/08 00:02:21;;;;;;;2.45;0.80;;;;;;;5.51;100.00;97333.03;5063753;28;20071;-60
2023/11/08 00:04:47;;;;;;;4.05;1.08;;;;;;;5.46;100.00;97334.50;5061017;28;20651;-61
2023/11/08 00:07:14;;;;;;;3.35;1.00;;;;;;;5.37;100.00;97326.94;5063889;28;20051;-60
2023/11/08 00:09:41;;;;;;;5.47;1.00;;;;;;;5.52;100.00;97338.19;5044382;28;20052;-61
2023/11/08 00:12:08;;;;;;;2.08;0.90;;;;;;;5.52;100.00;97340.03;5064317;28;20093;-60
2023/11/08 00:14:35;;;;;;;3.70;0.80;;;;;;;5.63;100.00;97342.03;5068616;28;20118;-60
2023/11/08 00:17:03;;;;;;;3.38;1.33;;;;;;;5.53;100.00;97342.50;5067991;28;20040;-61
2023/11/08 00:19:30;;;;;;;5.25;1.02;;;;;;;5.57;100.00;97341.03;5064188;28;20048;-61
2023/11/08 00:21:58;;;;;;;2.95;0.75;;;;;;;5.56;100.00;97344.75;5064210;28;20048;-61
2023/11/08 00:24:28;;;;;;;2.80;0.95;;;;;;;5.73;100.00;97345.03;5069413;28;20056;-60
2023/11/08 00:26:55;;;;;;;4.15;1.05;;;;;;;5.86;100.00;97337.88;5072628;28;20091;-62
2023/11/08 00:29:25;;;;;;;2.90;0.80;;;;;;;5.86;100.00;97344.06;5063610;28;20115;-62
2023/11/08 00:31:51;;;;;;;3.90;1.10;;;;;;;5.86;100.00;97352.13;5032134;28;20602;-61
2023/11/08 00:34:19;;;;;;;2.10;1.00;;;;;;;5.85;100.00;97344.28;5065927;28;20318;-61
2023/11/08 00:36:46;;;;;;;4.93;0.85;;;;;;;5.85;100.00;97349.66;5061959;28;20581;-62
2023/11/08 00:39:15;;;;;;;2.60;0.88;;;;;;;5.83;100.00;97349.88;5066270;28;20046;-61
2023/11/08 00:41:42;;;;;;;2.85;0.90;;;;;;;5.92;100.00;97339.69;5059954;28;20610;-61
2023/11/08 00:44:09;;;;;;;2.33;1.00;;;;;;;5.86;100.00;97344.06;5073528;28;20067;-61
2023/11/08 00:46:37;;;;;;;3.10;1.15;;;;;;;5.75;100.00;97346.69;5065905;28;21033;-61
2023/11/08 00:49:04;;;;;;;2.72;1.15;;;;;;;5.73;100.00;97352.28;5066042;28;20051;-61
2023/11/08 00:51:32;;;;;;;3.80;1.10;;;;;;;5.68;100.00;97355.59;5069215;28;20047;-60
2023/11/08 00:54:00;;;;;;;2.03;0.98;;;;;;;5.61;100.00;97352.19;5065709;28;20055;-60
2023/11/08 00:56:27;;;;;;;2.30;0.90;;;;;;;5.59;100.00;97352.41;5066768;28;20051;-61
2023/11/08 00:58:54;;;;;;;3.55;0.73;;;;;;;5.54;100.00;97357.59;5066219;28;20044;-60
2023/11/08 01:01:22;;;;;;;2.45;1.00;;;;;;;5.43;100.00;97353.78;5060542;28;20143;-61
2023/11/08 01:03:50;;;;;;;2.05;0.98;;;;;;;5.43;100.00;97347.56;5068674;28;20032;-60
2023/11/08 01:06:17;;;;;;;2.75;1.02;;;;;;;5.30;100.00;97346.63;5046691;28;20131;-62
2023/11/08 01:08:43;;;;;;;5.57;1.13;;;;;;;5.23;100.00;97351.22;5063120;28;20142;-62
2023/11/08 01:11:10;;;;;;;4.70;1.10;;;;;;;5.16;100.00;97351.28;5063510;28;20664;-61
2023/11/08 01:13:37;;;;;;;7.90;1.05;;;;;;;5.11;100.00;97353.78;5064978;28;20037;-62
2023/11/08 01:16:07;;;;;;;3.13;0.80;;;;;;;5.10;100.00;97356.69;5064591;28;20043;-61
2023/11/08 01:18:34;;;;;;;2.55;0.98;;;;;;;5.04;100.00;97351.16;5063573;28;20044;-61
2023/11/08 01:21:02;;;;;;;5.70;1.00;;;;;;;4.97;100.00;97353.03;5068318;28;20043;-61
2023/11/08 01:23:29;;;;;;;2.47;0.80;;;;;;;4.99;100.00;97351.00;5065328;28;20036;-61
2023/11/08 01:25:56;;;;;;;1.92;0.73;;;;;;;5.15;100.00;97356.84;5065388;28;20048;-61
2023/11/08 01:28:23;;;;;;;3.72;0.82;;;;;;;5.07;100.00;97350.72;5065172;28;20119;-60
2023/11/08 01:30:49;;;;;;;1.67;0.77;;;;;;;5.02;100.00;97353.22;5065969;28;20056;-61
2023/11/08 01:33:16;;;;;;;4.38;0.98;;;;;;;4.96;100.00;97343.34;5069368;28;20051;-60
2023/11/08 01:35:44;;;;;;;4.18;0.95;;;;;;;4.86;100.00;97343.03;5062646;28;20075;-60
2023/11/08 01:38:12;;;;;;;3.03;0.80;;;;;;;4.77;100.00;97332.53;5065346;28;20074;-60
2023/11/08 01:40:41;;;;;;;3.40;0.90;;;;;;;4.83;100.00;97336.19;5046161;28;20044;-61
2023/11/08 01:43:08;;;;;;;5.15;1.13;;;;;;;4.85;100.00;97338.69;5068167;28;20130;-62
2023/11/08 01:45:34;;;;;;;2.33;0.80;;;;;;;4.79;100.00;97340.38;5064784;28;20044;-62
2023/11/08 01:48:01;;;;;;;1.00;0.57;;;;;;;4.91;100.00;97338.63;5063985;28;20041;-61
2023/11/08 01:50:28;;;;;;;3.95;0.82;;;;;;;5.01;100.00;97337.34;5065007;28;20499;-61
2023/11/08 01:52:55;;;;;;;4.60;0.90;;;;;;;5.02;100.00;97334.44;5064790;28;20046;-61
2023/11/08 01:55:22;;;;;;;2.30;0.65;;;;;;;4.97;100.00;97338.81;5063692;28;20058;-61
2023/11/08 01:57:48;;;;;;;2.53;0.60;;;;;;;4.88;100.00;97343.63;5051489;28;20051;-62
2023/11/08 02:00:18;;;;;;;1.17;0.50;;;;;;;4.83;100.00;97341.56;5051377;28;20044;-61
2023/11/08 02:02:46;;;;;;;2.63;0.75;;;;;;;4.90;100.00;97342.34;5052285;28;20049;-61
2023/11/08 02:05:13;;;;;;;3.28;0.70;;;;;;;4.83;100.00;97344.25;5063307;28;20042;-62
2023/11/08 02:07:40;;;;;;;2.42;0.75;;;;;;;4.81;100.00;97341.81;5061211;28;20040;-61
2023/11/08 02:10:08;;;;;;;4.80;0.60;;;;;;;4.80;100.00;97339.34;5064949;28;20115;-61
2023/11/08 02:12:37;;;;;;;2.20;0.57;;;;;;;4.81;100.00;97341.81;5064542;28;20119;-62
2023/11/08 02:15:10;;;;;;;2.50;0.98;;;;;;;4.82;100.00;97335.41;5050114;28;20044;-62
2023/11/08 02:17:37;;;;;;;1.95;0.63;;;;;;;4.78;100.00;97333.34;5044966;28;20040;-61
2023/11/08 02:20:06;;;;;;;1.08;0.60;;;;;;;4.72;100.00;97335.03;5058596;28;20111;-62
2023/11/08 02:22:32;;;;;;;1.38;0.73;;;;;;;4.76;100.00;97335.44;5063007;28;20067;-62
2023/11/08 02:24:59;;;;;;;1.73;0.47;;;;;;;4.69;100.00;97330.91;5044750;28;20033;-61
2023/11/08 02:27:26;;;;;;;1.52;0.60;;;;;;;4.77;100.00;97329.88;5063465;28;20083;-61
2023/11/08 02:29:52;;;;;;;3.42;0.95;;;;;;;4.84;100.00;97329.81;5063553;28;20491;-62
2023/11/08 02:32:19;;;;;;;2.85;0.88;;;;;;;4.80;100.00;97329.41;5061600;28;20040;-60
2023/11/08 02:34:46;;;;;;;3.35;0.60;;;;;;;4.66;100.00;97330.53;5063446;28;20043;-60
2023/11/08 02:37:12;;;;;;;2.80;0.57;;;;;;;4.71;100.00;97329.91;5045868;28;20139;-61
2023/11/08 02:39:39;;;;;;;1.40;0.60;;;;;;;4.76;100.00;97335.44;5063076;28;20188;-62
2023/11/08 02:42:07;;;;;;;2.28;0.60;;;;;;;4.87;100.00;97336.63;5045117;28;20043;-61
2023/11/08 02:44:33;;;;;;;2.75;0.40;;;;;;;4.88;100.00;97338.25;5063016;28;20557;-61
2023/11/08 02:47:00;;;;;;;1.50;0.43;;;;;;;4.98;100.00;97335.94;5062044;28;20054;-62
2023/11/08 02:49:30;;;;;;;0.45;0.40;;;;;;;4.88;100.00;97327.53;5068660;28;20051;-61
2023/11/08 02:51:57;;;;;;;1.80;0.43;;;;;;;4.91;100.00;97322.53;5068864;28;20041;-62
2023/11/08 02:54:25;;;;;;;1.88;0.65;;;;;;;4.99;100.00;97331.38;5062848;28;20192;-62
2023/11/08 02:56:52;;;;;;;1.48;0.40;;;;;;;4.99;100.00;97334.06;5061490;28;20062;-62
2023/11/08 02:59:20;;;;;;;1.73;0.50;;;;;;;5.02;100.00;97333.63;5045396;28;20057;-62
2023/11/08 03:01:48;;;;;;;1.17;0.47;;;;;;;5.02;100.00;97339.78;5065936;28;20045;-61
2023/11/08 03:04:15;;;;;;;2.63;0.70;;;;;;;5.05;100.00;97338.56;5063652;28;20131;-62
2023/11/08 03:06:43;;;;;;;0.80;0.40;;;;;;;4.94;100.00;97346.25;5062236;28;20116;-61
2023/11/08 03:09:10;;;;;;;1.38;0.50;;;;;;;4.91;100.00;97338.63;5062642;28;20044;-62
2023/11/08 03:11:38;;;;;;;2.95;0.70;;;;;;;4.88;100.00;97346.28;5065198;28;20048;-61
2023/11/08 03:14:06;;;;;;;1.13;0.52;;;;;;;4.64;100.00;97343.34;5063918;28;20045;-61
2023/11/08 03:16:35;;;;;;;1.80;0.55;;;;;;;4.54;100.00;97341.94;5062208;28;20151;-61
2023/11/08 03:19:03;;;;;;;1.65;0.47;;;;;;;4.40;100.00;97341.19;5046834;28;20032;-61
2023/11/08 03:21:30;;;;;;;3.13;0.80;;;;;;;4.36;100.00;97349.84;5064497;28;20090;-61
2023/11/08 03:23:58;;;;;;;6.18;0.82;;;;;;;4.29;100.00;97350.72;5063918;28;20037;-62
2023/11/08 03:26:24;;;;;;;4.07;0.68;;;;;;;4.24;100.00;97358.56;5060845;28;20056;-61
2023/11/08 03:28:51;;;;;;;3.88;0.73;;;;;;;4.30;100.00;97354.19;5063256;28;20051;-61
2023/11/08 03:31:18;;;;;;;1.02;0.60;;;;;;;4.21;100.00;97356.31;5068221;28;20037;-61
2023/11/08 03:33:45;;;;;;;2.78;1.48;;;;;;;4.32;100.00;97351.31;5057217;28;20511;-61
2023/11/08 03:36:11;;;;;;;1.60;0.65;;;;;;;4.25;100.00;97354.03;5063123;28;20064;-61
2023/11/08 03:38:38;;;;;;;3.58;0.85;;;;;;;4.19;100.00;97360.22;5065349;28;20040;-61
2023/11/08 03:41:04;;;;;;;3.92;0.68;;;;;;;4.12;100.00;97362.91;5063266;28;20037;-61
2023/11/08 03:43:31;;;;;;;3.10;1.00;;;;;;;4.24;100.00;97373.81;5044147;28;20051;-61
2023/11/08 03:45:57;;;;;;;3.83;0.75;;;;;;;4.28;100.00;97370.50;5060221;28;21428;-62
2023/11/08 03:48:24;;;;;;;3.03;1.00;;;;;;;4.26;100.00;97371.75;5061661;28;20051;-61
2023/11/08 03:50:50;;;;;;;1.83;0.90;;;;;;;4.27;100.00;97371.53;5062416;28;20647;-62
2023/11/08 03:53:17;;;;;;;2.63;0.95;;;;;;;4.31;100.00;97371.94;5044442;28;20849;-60
2023/11/08 03:55:44;;;;;;;2.55;0.70;;;;;;;4.26;100.00;97369.06;5061337;28;20115;-62
2023/11/08 03:58:10;;;;;;;3.08;0.95;;;;;;;4.16;100.00;97366.81;5063699;28;20064;-62
2023/11/08 04:00:37;;;;;;;2.67;0.80;;;;;;;4.02;100.00;97361.50;5062988;28;20119;-62
2023/11/08 04:03:03;;;;;;;2.70;0.80;;;;;;;4.00;100.00;97368.94;5056120;28;20037;-61
2023/11/08 04:05:30;;;;;;;1.60;0.70;;;;;;;3.96;100.00;97365.03;5045277;28;20120;-61
2023/11/08 04:07:57;;;;;;;2.25;0.88;;;;;;;4.00;100.00;97373.47;5066273;28;20045;-62
2023/11/08 04:10:24;;;;;;;2.95;1.02;;;;;;;3.96;100.00;97373.06;5061098;28;20033;-62
2023/11/08 04:12:50;;;;;;;2.17;0.80;;;;;;;3.98;100.00;97367.50;5061005;28;20036;-61
2023/11/08 04:15:18;;;;;;;3.55;1.05;;;;;;;3.99;100.00;97387.91;5062840;28;20044;-61
2023/11/08 04:17:45;;;;;;;3.33;0.98;;;;;;;4.10;100.00;97386.44;5062980;28;20112;-61
2023/11/08 04:20:12;;;;;;;4.32;1.02;;;;;;;4.18;100.00;97391.56;5062421;28;20068;-61
2023/11/08 04:22:42;;;;;;;2.53;0.73;;;;;;;4.27;100.00;97387.63;5043170;28;20091;-61
2023/11/08 04:25:12;;;;;;;2.65;0.82;;;;;;;4.38;100.00;97390.66;5062809;28;20500;-61
2023/11/08 04:27:39;;;;;;;2.15;0.80;;;;;;;4.46;100.00;97395.00;5062461;28;20048;-62
2023/11/08 04:30:06;;;;;;;3.55;1.05;;;;;;;4.51;100.00;97396.00;5063956;28;20043;-61
2023/11/08 04:32:33;;;;;;;3.88;1.08;;;;;;;4.64;100.00;97397.00;5061539;28;20060;-62
2023/11/08 04:34:59;;;;;;;4.63;1.05;;;;;;;4.68;100.00;97398.19;5061335;28;20052;-61
2023/11/08 04:37:26;;;;;;;2.03;0.90;;;;;;;4.67;100.00;97396.53;5057387;28;20051;-61
2023/11/08 04:39:52;;;;;;;3.65;1.00;;;;;;;4.60;100.00;97391.22;5044455;28;20041;-62
2023/11/08 04:42:19;;;;;;;3.15;1.00;;;;;;;4.49;100.00;97389.22;5063476;28;20111;-61
2023/11/08 04:44:49;;;;;;;3.45;1.35;;;;;;;4.46;100.00;97389.63;5065397;28;20779;-62
2023/11/08 04:47:19;;;;;;;5.32;1.17;;;;;;;4.45;100.00;97393.34;5068750;28;20110;-62
2023/11/08 04:49:50;;;;;;;4.27;1.57;;;;;;;4.40;100.00;97402.84;5065936;28;20066;-62
2023/11/08 04:52:17;;;;;;;4.85;1.30;;;;;;;4.34;100.00;97402.84;5049117;28;20492;-61
2023/11/08 04:54:47;;;;;;;2.95;1.23;;;;;;;4.32;100.00;97394.22;5066861;28;20088;-60
2023/11/08 04:57:20;;;;;;;3.78;1.00;;;;;;;4.41;100.00;97393.78;5050353;28;20044;-61
2023/11/08 04:59:49;;;;;;;3.13;0.80;;;;;;;4.45;100.00;97401.41;5063511;28;20032;-61
2023/11/08 05:02:19;;;;;;;3.70;1.13;;;;;;;4.55;100.00;97391.88;5047089;28;20140;-62
2023/11/08 05:04:45;;;;;;;2.58;0.77;;;;;;;4.79;100.00;97396.72;5065338;28;20557;-61
2023/11/08 05:07:12;;;;;;;2.00;0.80;;;;;;;4.91;100.00;97394.19;5068203;28;20130;-60
2023/11/08 05:09:40;;;;;;;4.53;1.05;;;;;;;4.90;100.00;97403.28;5065294;28;20041;-61
2023/11/08 05:12:08;;;;;;;4.22;0.82;;;;;;;4.94;100.00;97396.44;5065232;28;20040;-61
2023/11/08 05:14:34;;;;;;;2.58;0.98;;;;;;;4.84;100.00;97406.78;5065592;28;20037;-62
2023/11/08 05:17:01;;;;;;;2.83;1.25;;;;;;;4.66;100.00;97400.28;5065059;28;20526;-62
2023/11/08 05:19:28;;;;;;;3.13;0.90;;;;;;;4.54;100.00;97402.81;5064448;28;20167;-62
2023/11/08 05:21:55;;;;;;;4.28;1.00;;;;;;;4.47;100.00;97397.47;5066779;28;20052;-61
2023/11/08 05:24:22;;;;;;;3.05;1.23;;;;;;;4.51;100.00;97395.19;5064051;28;20069;-60
2023/11/08 05:26:50;;;;;;;4.80;1.30;;;;;;;4.60;100.00;97401.94;5063039;28;20316;-61
2023/11/08 05:29:18;;;;;;;4.75;1.10;;;;;;;4.63;100.00;97401.53;5066727;28;20047;-62
2023/11/08 05:31:47;;;;;;;2.33;1.00;;;;;;;4.59;100.00;97392.25;5064696;28;20046;-62
2023/11/08 05:34:17;;;;;;;4.80;1.50;;;;;;;4.45;100.00;97398.72;5065287;28;20044;-61
2023/11/08 05:36:44;;;;;;;4.95;1.75;;;;;;;4.36;100.00;97390.91;5061616;28;20419;-61
2023/11/08 05:39:10;;;;;;;4.40;1.40;;;;;;;4.33;100.00;97396.69;5067733;28;20074;-62
2023/11/08 05:41:37;;;;;;;4.78;1.30;;;;;;;4.29;100.00;97396.28;5030150;28;20051;-62
2023/11/08 05:44:04;;;;;;;3.53;1.20;;;;;;;4.24;100.00;97390.72;5065409;28;20044;-62
2023/11/08 05:46:31;;;;;;;5.20;1.30;;;;;;;4.23;100.00;97396.28;5064286;28;20048;-63
2023/11/08 05:48:58;;;;;;;3.53;1.30;;;;;;;4.30;100.00;97402.47;5062686;28;20037;-61
2023/11/08 05:51:27;;;;;;;4.57;1.23;;;;;;;4.41;100.00;97407.19;5064226;28;20129;-61
2023/11/08 05:53:54;;;;;;;2.22;1.05;;;;;;;4.37;100.00;97411.31;5064456;28;20083;-60
2023/11/08 05:56:21;;;;;;;3.75;1.27;;;;;;;4.34;100.00;97398.31;5065003;28;20050;-61
2023/11/08 05:58:47;;;;;;;3.10;1.17;;;;;;;4.32;100.00;97410.28;5064489;28;20028;-60
2023/11/08 06:01:15;;;;;;;5.28;1.80;;;;;;;4.41;100.00;97409.03;5063838;28;20125;-61
2023/11/08 06:03:42;;;;;;;3.75;1.30;;;;;;;4.40;100.00;97410.06;5063402;28;20028;-62
2023/11/08 06:06:09;;;;;;;3.40;1.20;;;;;;;4.38;100.00;97406.75;5064276;28;20045;-61
2023/11/08 06:08:36;;;;;;;3.88;1.30;;;;;;;4.37;100.00;97413.16;5064648;28;20048;-61
2023/11/08 06:11:07;;;;;;;2.42;1.20;;;;;;;4.33;100.00;97412.75;5045901;28;20443;-61
2023/11/08 06:13:35;;;;;;;2.25;1.13;;;;;;;4.34;100.00;97419.75;5063222;28;20036;-60
2023/11/08 06:16:02;;;;;;;4.93;0.95;;;;;;;4.47;100.00;97424.28;5063086;28;20060;-61
2023/11/08 06:18:30;;;;;;;5.97;1.30;;;;;;;4.47;100.00;97415.41;5061322;28;20053;-61
2023/11/08 06:20:57;;;;;;;3.65;1.00;;;;;;;4.36;100.00;97423.06;5060466;28;20048;-62
2023/11/08 06:23:24;;;;;;;7.20;1.38;;;;;;;4.28;100.00;97429.47;5061383;28;20054;-61
2023/11/08 06:25:51;;;;;;;3.45;1.50;;;;;;;4.36;100.00;97432.97;5060162;28;20048;-62
2023/11/08 06:28:17;;;;;;;3.55;1.20;;;;;;;4.37;100.00;97430.06;5062921;28;20123;-62
2023/11/08 06:30:44;;;;;;;3.78;1.13;;;;;;;4.39;100.00;97437.91;5061629;28;20593;-62
2023/11/08 06:33:10;;;;;;;3.30;1.15;;;;;;;4.35;100.00;97442.03;5061795;28;20144;-61
2023/11/08 06:35:40;;;;;;;4.72;1.50;;;;;;;4.33;100.00;97439.56;5061824;28;20748;-62
2023/11/08 06:38:07;;;;;;;3.13;1.25;;;;;;;4.40;100.00;97431.50;5043800;28;20522;-61
2023/11/08 06:40:34;;;;;;;3.65;1.50;;;;;;;4.49;100.00;97435.59;5041992;28;20079;-62
2023/11/08 06:43:02;;;;;;;6.60;1.50;;;;;;;4.44;100.00;97438.09;5046547;28;20072;-61
2023/11/08 06:45:30;;;;;;;2.58;1.33;;;;;;;4.47;100.00;97440.38;5063153;28;20040;-63
2023/11/08 06:47:57;;;;;;;3.97;1.38;;;;;;;4.49;100.00;97448.22;5060975;28;20067;-62
2023/11/08 06:50:23;;;;;;;5.15;1.88;;;;;;;4.39;100.00;97449.44;5060675;28;20048;-63
2023/11/08 06:52:50;;;;;;;6.38;1.48;;;;;;;4.37;100.00;97446.16;5056423;28;20040;-63
2023/11/08 06:55:16;;;;;;;2.85;1.30;;;;;;;4.37;100.00;97456.88;5043662;28;20052;-62
2023/11/08 06:57:57;;;;;;;3.73;1.50;;;;;;;4.42;100.00;97450.88;5042894;28;20068;-63
2023/11/08 07:00:24;;;;;;;3.60;1.52;;;;;;;4.48;100.00;97452.72;5062814;28;20070;-63
2023/11/08 07:02:50;;;;;;;6.72;2.13;;;;;;;4.46;100.00;97465.50;5059552;28;20051;-62
2023/11/08 07:05:17;;;;;;;5.40;1.23;;;;;;;4.49;100.00;97458.94;5060929;28;20040;-62
2023/11/08 07:07:55;;;;;;;3.35;1.55;;;;;;;4.57;100.00;97463.22;5043140;28;20527;-62
2023/11/08 07:10:22;;;;;;;4.15;1.50;;;;;;;4.65;100.00;97463.81;5061556;28;20147;-63
2023/11/08 07:12:48;;;;;;;7.70;1.65;;;;;;;4.75;100.00;97473.28;5060613;28;20036;-63
2023/11/08 07:15:15;;;;;;;4.55;1.92;;;;;;;4.90;100.00;97468.47;5060753;28;20518;-62
2023/11/08 07:17:42;;;;;;;7.47;1.77;;;;;;;5.08;100.00;97472.31;5060376;28;20115;-63
2023/11/08 07:20:09;;;;;;;3.72;1.42;;;;;;;5.25;100.00;97478.03;5061560;28;20044;-63
2023/11/08 07:22:36;;;;;;;3.88;1.17;;;;;;;5.39;100.00;97486.00;5061479;28;20056;-62
2023/11/08 07:25:03;;;;;;;2.03;1.10;;;;;;;5.55;100.00;97481.97;5060877;28;20040;-63
2023/11/08 07:27:30;;;;;;;3.90;1.23;;;;;;;5.58;100.00;97484.22;5058906;28;20047;-62
2023/11/08 07:29:56;;;;;;;4.40;1.30;;;;;;;5.69;100.00;97486.22;5065506;28;20040;-62
2023/11/08 07:32:23;;;;;;;4.03;1.30;;;;;;;5.73;100.00;97491.97;5061637;28;20052;-63
2023/11/08 07:34:52;;;;;;;1.95;1.02;;;;;;;5.79;100.00;97498.34;5060887;28;20396;-63
2023/11/08 07:37:19;;;;;;;2.47;1.10;;;;;;;5.96;100.00;97501.31;5063041;28;20090;-62
2023/11/08 07:39:46;;;;;;;4.28;1.50;;;;;;;6.07;100.00;97499.81;5059943;28;20044;-62
2023/11/08 07:42:12;;;;;;;2.30;0.88;;;;;;;6.06;100.00;97498.16;5061045;28;20044;-64
2023/11/08 07:44:39;;;;;;;3.53;1.08;;;;;;;6.13;100.00;97496.25;5059620;28;20064;-63
2023/11/08 07:47:06;;;;;;;4.28;1.10;;;;;;;6.21;100.00;97495.13;5059065;28;20043;-62
2023/11/08 07:49:32;;;;;;;3.75;1.48;;;;;;;6.29;100.00;97488.66;5040364;28;20048;-62
2023/11/08 07:52:00;;;;;;;3.60;1.13;;;;;;;6.35;100.00;97498.53;5057980;28;20040;-62
2023/11/08 07:54:27;;;;;;;2.13;0.85;;;;;;;6.47;100.00;97491.38;5060545;28;20072;-63
2023/11/08 07:56:54;;;;;;;2.80;0.80;;;;;;;6.53;100.00;97489.69;5060622;28;20064;-62
2023/11/08 07:59:20;;;;;;;2.55;1.00;;;;;;;6.62;100.00;97485.66;5061536;28;20040;-63
2023/11/08 08:01:47;;;;;;;2.67;1.20;;;;;;;6.58;100.00;97487.13;5059847;28;20059;-63
2023/11/08 08:04:14;;;;;;;7.22;1.40;;;;;;;6.58;100.00;97484.44;5060159;28;20041;-62
2023/11/08 08:06:41;;;;;;;4.70;1.10;;;;;;;6.54;100.00;97480.56;5059174;28;20137;-63
2023/11/08 08:09:14;;;;;;;2.08;0.90;;;;;;;6.54;100.00;97487.78;5060588;28;20044;-62
2023/11/08 08:11:47;;;;;;;2.10;0.98;;;;;;;6.57;100.00;97490.88;5058135;28;20461;-63
2023/11/08 08:14:14;;;;;;;8.15;1.00;;;;;;;6.69;100.00;97482.03;5056684;28;20044;-62
2023/11/08 08:16:41;;;;;;;2.08;0.63;;;;;;;6.85;100.00;97481.44;5037885;28;20079;-62
2023/11/08 08:19:08;;;;;;;2.13;0.70;;;;;;;7.00;100.00;97474.84;5065157;28;20040;-63
2023/11/08 08:21:35;;;;;;;3.25;0.77;;;;;;;7.02;100.00;97473.59;5063559;28;20048;-63
2023/11/08 08:24:02;;;;;;;2.53;0.88;;;;;;;7.03;100.00;97480.63;5030131;28;20047;-62
2023/11/08 08:26:34;;;;;;;2.63;1.10;;;;;;;7.05;100.00;97472.31;5046347;28;20052;-62
2023/11/08 08:29:01;;;;;;;4.50;0.70;;;;;;;7.12;100.00;97470.34;5044439;28;20045;-63
2023/11/08 08:31:28;;;;;;;2.13;0.90;;;;;;;7.01;100.00;97468.44;5064663;28;20437;-62
2023/11/08 08:33:57;;;;;;;6.20;1.00;;;;;;;6.93;100.00;97471.44;5064792;28;20036;-63
2023/11/08 08:36:25;;;;;;;1.85;0.80;;;;;;;6.88;100.00;97472.94;5064445;28;20112;-63
2023/11/08 08:38:51;;;;;;;1.50;0.77;;;;;;;6.80;100.00;97467.84;5064923;28;20044;-62
2023/11/08 08:41:18;;;;;;;2.85;0.82;;;;;;;6.80;100.00;97470.53;5063524;28;20464;-63
2023/11/08 08:43:45;;;;;;;2.63;0.68;;;;;;;6.73;100.00;97476.00;5046433;28;20032;-62
2023/11/08 08:46:11;;;;;;;1.88;0.77;;;;;;;6.74;100.00;97476.81;5063316;28;20049;-61
2023/11/08 08:48:38;;;;;;;3.10;1.02;;;;;;;6.79;100.00;97474.28;5063674;28;20666;-63
2023/11/08 08:51:05;;;;;;;3.33;1.27;;;;;;;6.84;100.00;97479.81;5063059;28;20118;-63
2023/11/08 08:53:31;;;;;;;4.90;1.02;;;;;;;6.92;100.00;97480.56;5045185;28;20056;-63
2023/11/08 08:55:58;;;;;;;4.53;0.88;;;;;;;6.98;100.00;97480.47;5064302;28;20045;-62
2023/11/08 08:58:24;;;;;;;1.67;0.73;;;;;;;7.14;100.00;97473.66;5064324;28;20131;-64
2023/11/08 09:00:51;;;;;;;2.63;0.70;;;;;;;7.18;100.00;97479.38;5063888;28;20754;-62
2023/11/08 09:03:17;;;;;;;2.13;0.98;;;;;;;7.20;100.00;97476.47;5064113;28;20224;-62
2023/11/08 09:05:44;;;;;;;3.15;1.10;;;;;;;7.29;100.00;97472.41;5061629;28;20070;-62
2023/11/08 09:08:11;;;;;;;3.38;0.93;;;;;;;7.24;100.00;97469.59;5064589;28;20098;-63
2023/11/08 09:10:38;;;;;;;3.72;1.20;;;;;;;7.33;100.00;97473.59;5064046;28;20054;-63
2023/11/08 09:13:05;;;;;;;3.13;1.08;;;;;;;7.40;100.00;97471.63;5063373;28;20083;-63
2023/11/08 09:15:32;;;;;;;3.00;1.00;;;;;;;7.50;100.00;97478.34;5063242;28;20170;-62
2023/11/08 09:17:59;;;;;;;3.90;1.40;;;;;;;7.59;100.00;97476.97;5062973;28;20103;-62
2023/11/08 09:20:26;;;;;;;3.38;1.15;;;;;;;7.63;100.00;97474.66;5061063;28;20511;-61
2023/11/08 09:22:52;;;;;;;4.80;2.40;;;;;;;7.68;100.00;97475.56;5063485;28;20044;-62
2023/11/08 09:25:19;;;;;;;4.45;1.80;;;;;;;7.70;100.00;97474.53;5064489;28;20044;-63
2023/11/08 09:27:46;;;;;;;14.55;9.35;;;;;;;7.62;100.00;97472.97;5062668;28;20507;-63
2023/11/08 09:30:13;;;;;;;3.90;1.40;;;;;;;7.61;100.00;97472.19;5062939;28;20045;-63
2023/11/08 09:32:39;;;;;;;2.38;1.10;;;;;;;7.65;100.00;97473.38;5046076;28;20094;-64
2023/11/08 09:35:06;;;;;;;6.55;2.55;;;;;;;7.79;100.00;97473.16;5063855;28;20051;-62
2023/11/08 09:37:34;;;;;;;3.30;1.30;;;;;;;7.76;100.00;97481.69;5063608;28;20045;-63
2023/11/08 09:40:00;;;;;;;7.82;3.28;;;;;;;7.87;100.00;97475.50;5064124;28;20119;-64
2023/11/08 09:42:29;;;;;;;5.18;2.10;;;;;;;8.02;100.00;97479.63;5061837;28;20127;-63
2023/11/08 09:44:58;;;;;;;3.53;1.10;;;;;;;8.02;100.00;97475.06;5063749;28;20121;-63
2023/11/08 09:47:26;;;;;;;6.72;3.08;;;;;;;8.03;100.00;97478.56;5058939;28;20123;-62
2023/11/08 09:49:53;;;;;;;11.13;3.97;;;;;;;8.09;100.00;97485.75;5062829;28;20102;-63
2023/11/08 09:52:22;;;;;;;5.03;1.60;;;;;;;8.05;100.00;97484.56;5063998;28;20056;-63
2023/11/08 09:54:49;;;;;;;4.28;1.30;;;;;;;8.02;100.00;97485.03;5057966;28;20570;-63
2023/11/08 09:57:19;;;;;;;3.80;1.23;;;;;;;7.87;100.00;97480.91;5062834;28;20045;-62
2023/11/08 09:59:47;;;;;;;3.60;1.05;;;;;;;7.94;100.00;97484.31;5062074;28;20651;-64
2023/11/08 10:02:15;;;;;;;2.72;1.30;;;;;;;7.87;100.00;97489.00;5063497;28;20071;-64
2023/11/08 10:04:43;;;;;;;3.60;1.48;;;;;;;7.90;100.00;97480.47;5062582;28;20067;-63
2023/11/08 10:07:13;;;;;;;2.90;1.17;;;;;;;8.02;100.00;97475.06;5059792;28;20216;-64
2023/11/08 10:09:40;;;;;;;4.25;1.25;;;;;;;8.15;100.00;97468.63;5062369;28;20047;-64
2023/11/08 10:12:08;;;;;;;6.70;3.25;;;;;;;8.06;100.00;97478.13;5062592;28;20446;-63
2023/11/08 10:14:39;;;;;;;5.55;2.33;;;;;;;8.01;100.00;97472.59;5057904;28;20041;-63
2023/11/08 10:17:06;;;;;;;3.22;1.20;;;;;;;8.05;100.00;97473.78;5062583;28;20119;-64
2023/11/08 10:19:53;;;;;;;2.17;1.10;;;;;;;7.97;100.00;97469.56;5046335;28;20102;-62
2023/11/08 10:22:23;;;;;;;3.13;0.90;;;;;;;7.92;100.00;97461.31;5062973;28;20057;-62
2023/11/08 10:25:00;;;;;;;3.10;1.35;;;;;;;8.03;100.00;97474.00;5061181;28;20115;-64
2023/11/08 10:27:29;;;;;;;4.47;1.08;;;;;;;8.02;100.00;97464.28;5062665;28;20113;-62
2023/11/08 10:30:15;;;;;;;2.22;0.95;;;;;;;8.20;100.00;97459.84;5040545;28;20121;-63
2023/11/08 10:32:43;;;;;;;4.85;1.25;;;;;;;8.32;100.00;97459.81;5061806;28;20135;-63
2023/11/08 10:35:15;;;;;;;4.63;1.67;;;;;;;8.44;100.00;97451.75;5057202;28;20044;-63
2023/11/08 10:37:42;;;;;;;;;;;;;;;8.63;100.00;97455.16;5062387;28;20052;-62
2023/11/08 10:40:12;;;;;;;3.45;0.85;;;;;;;8.80;100.00;97451.69;5040346;28;19928;-63
2023/11/08 10:42:40;;;;;;;1.85;0.73;;;;;;;8.92;100.00;97447.09;5061040;28;20040;-63
2023/11/08 10:45:09;;;;;;;1.08;0.30;;;;;;;9.13;91.99;97444.00;5062079;28;20094;-62
2023/11/08 10:47:37;;;;;;;3.05;0.70;;;;;;;9.27;85.51;97441.78;5061009;28;20491;-63
2023/11/08 10:50:06;;;;;;;2.00;0.50;;;;;;;9.27;83.61;97437.22;5060993;28;20379;-63
2023/11/08 10:52:33;;;;;;;7.80;3.25;;;;;;;9.22;83.34;97439.84;5061370;28;20055;-64
2023/11/08 10:55:01;;;;;;;1.05;0.30;;;;;;;9.33;81.86;97432.75;5060722;28;20037;-63
2023/11/08 10:57:29;;;;;;;2.90;1.55;;;;;;;9.18;82.81;97431.38;5061480;28;20051;-63
2023/11/08 11:00:00;;;;;;;1.27;0.20;;;;;;;9.17;80.27;97426.22;5059867;28;20408;-63
2023/11/08 11:02:35;;;;;;;1.25;0.68;;;;;;;9.17;82.18;97424.34;5043923;28;20051;-63
2023/11/08 11:05:08;;;;;;;0.95;0.50;;;;;;;9.21;80.12;97419.25;5060707;28;20072;-63
2023/11/08 11:07:41;;;;;;;0.30;0.30;;;;;;;9.36;81.74;97424.13;5060718;28;20396;-64
2023/11/08 11:10:10;;;;;;;0.70;0.40;;;;;;;9.44;82.52;97412.91;5062054;28;20497;-63
2023/11/08 11:12:58;;;;;;;0.40;0.40;;;;;;;9.63;81.17;97416.22;5045519;28;20045;-64
2023/11/08 11:15:55;;;;;;;0.35;0.22;;;;;;;9.89;79.61;97407.72;5059217;28;20812;-64
2023/11/08 11:18:27;;;;;;;0.75;0.30;;;;;;;9.97;80.01;97410.00;5061210;28;20079;-63
2023/11/08 11:21:01;;;;;;;1.10;0.40;;;;;;;10.07;78.94;97409.34;5061225;28;20129;-63
2023/11/08 11:23:41;;;;;;;0.47;0.17;;;;;;;10.12;80.00;97411.28;5061915;28;20045;-62
2023/11/08 11:26:10;;;;;;;0.77;0.20;;;;;;;10.13;77.89;97402.94;5061778;28;20040;-62
2023/11/08 11:28:51;;;;;;;3.33;1.17;;;;;;;10.08;79.85;97408.28;5059406;28;20048;-61
2023/11/08 11:31:43;;;;;;;0.60;0.20;;;;;;;10.02;77.92;97399.25;5056605;28;20052;-61
2023/11/08 11:34:24;;;;;;;0.85;0.30;;;;;;;9.95;77.18;97392.41;5055993;28;20620;-62
2023/11/08 11:37:10;;;;;;;0.43;0.25;;;;;;;9.97;77.71;97399.19;5042732;28;20045;-61
2023/11/08 11:39:38;;;;;;;5.63;0.43;;;;;;;9.94;76.16;97398.84;5061215;28;20056;-62